Terminal Aerodrome Forecast
Issued by NWS Nashville, TN

Home | Current Version | Previous Version | Text Only | Print | Product List | Glossary On
Versions: 1 2 3 4 5 6 7 8 9 10 11 12 13 14 15 16 17 18 19 20 21 22
000
FTUS44 KOHX 262300
TAFCSV
TAF
KCSV 262323Z 2700/2724 35012G20KT 3SM BR OVC005
     FM270200 36010KT 3SM RA BR OVC007
     FM270800 35010KT 1SM BR OVC004
     FM271400 36009KT 5SM BR OVC015
     FM271600 36009KT P6SM OVC025
     FM271800 33010G16KT P6SM OVC050=

USA.gov is the U.S. government's official web portal to all federal, state and local government web resources and services.